This is the latest recevied weather packets stored in our database for station/object KF7SOJ. If no packets are shown the sender has not sent any weather packets the latest 10 day(s).
| Time | Temp. | Humidity | Pressure | Rain* | Wind** | Luminosity | Snow |
|---|---|---|---|---|---|---|---|
| 1788065091 | 18.33° C | 61% | 927.7 hPa | 0 mm | - | 0 W/m² | - |
| 1788064786 | 18.33° C | 60% | 928 hPa | 0 mm | - | 0 W/m² | - |
| 1788064481 | 19.44° C | 55% | 928 hPa | 0 mm | - | 0 W/m² | - |
| 1788064179 | 20° C | 52% | 927.9 hPa | 0 mm | - | 0 W/m² | - |
| 1788063873 | 20° C | 51% | 927.4 hPa | 0 mm | - | 0 W/m² | - |
| 1788063572 | 20° C | 50% | 927.3 hPa | 0 mm | - | 0 W/m² | - |
| 1788063271 | 20.56° C | 48% | 927.2 hPa | 0 mm | - | 0 W/m² | - |
| 1788062967 | 21.11° C | 46% | 927.2 hPa | 0 mm | - | 0 W/m² | - |
| 1788062663 | 21.11° C | 46% | 927 hPa | 0 mm | - | 0 W/m² | - |
| 1788062362 | 21.11° C | 46% | 927.3 hPa | 0 mm | - | 0 W/m² | - |
| 1788062061 | 21.67° C | 45% | 927.4 hPa | 0 mm | - | 0 W/m² | - |
| 1788061756 | 21.11° C | 45% | 927.4 hPa | 0 mm | - | 0 W/m² | - |
| 1788061452 | 21.67° C | 45% | 927.3 hPa | 0 mm | - | 0 W/m² | - |
| 1788061147 | 21.11° C | 46% | 927.4 hPa | 0 mm | - | 0 W/m² | - |
| 1788060841 | 21.11° C | 46% | 927.3 hPa | 0 mm | - | 0 W/m² | - |
| 1788060538 | 21.11° C | 46% | 927.2 hPa | 0 mm | - | 0 W/m² | - |
| 1788060236 | 21.11° C | 48% | 927.2 hPa | 0 mm | - | 0 W/m² | - |
| 1788059931 | 21.11° C | 48% | 927.2 hPa | 0 mm | - | 0 W/m² | - |
| 1788059627 | 21.11° C | 48% | 927.1 hPa | 0 mm | - | 0 W/m² | - |
| 1788059322 | 21.67° C | 46% | 927.1 hPa | 0 mm | - | 0 W/m² | - |
| 1788059017 | 21.67° C | 46% | 927.3 hPa | 0 mm | - | 0 W/m² | - |
| 1788058717 | 22.22° C | 43% | 927.3 hPa | 0 mm | - | 0 W/m² | - |
| 1788058411 | 22.22° C | 42% | 927.1 hPa | 0 mm | - | 0 W/m² | - |
| 1788058111 | 22.78° C | 39% | 927.3 hPa | 0 mm | - | 0 W/m² | - |
| 1788057806 | 23.89° C | 37% | 927.2 hPa | 0 mm | - | 0 W/m² | - |
* Rain latest hour (hover to see other rain measurements)
** Current wind speed in m/s (hover to see current wind gust speed)